createdAt,value
2022-08-17T00:01:51.869Z,23.88
2022-08-17T00:04:21.035Z,23.97
2022-08-17T00:06:49.550Z,23.94
2022-08-17T00:09:18.882Z,23.83
2022-08-17T00:12:41.309Z,23.75
2022-08-17T00:14:35.914Z,23.70
2022-08-17T00:17:04.500Z,23.66
2022-08-17T00:19:32.534Z,23.67
2022-08-17T00:22:32.592Z,23.76
2022-08-17T00:24:47.292Z,23.83
2022-08-17T00:27:13.968Z,23.85
2022-08-17T00:29:41.053Z,23.66
2022-08-17T00:33:13.884Z,23.53
2022-08-17T00:34:54.426Z,23.37
2022-08-17T00:37:27.606Z,23.35
2022-08-17T00:39:54.277Z,23.38
2022-08-17T00:42:20.931Z,23.38
2022-08-17T00:44:47.667Z,23.31
2022-08-17T00:47:14.291Z,23.31
2022-08-17T00:49:41.169Z,23.32
2022-08-17T00:52:16.597Z,23.26
2022-08-17T00:54:46.884Z,23.22
2022-08-17T00:57:21.087Z,23.19
2022-08-17T01:00:03.062Z,23.19
2022-08-17T01:02:43.077Z,23.27
2022-08-17T01:05:18.585Z,23.18
2022-08-17T01:07:47.860Z,23.14
2022-08-17T01:10:59.083Z,23.21
2022-08-17T01:13:05.351Z,23.21
2022-08-17T01:15:38.689Z,23.11
2022-08-17T01:18:07.881Z,23.00
2022-08-17T01:20:46.655Z,23.15
2022-08-17T01:23:21.255Z,23.13
2022-08-17T01:25:51.295Z,23.23
2022-08-17T01:28:52.477Z,23.17
2022-08-17T01:31:08.279Z,23.12
2022-08-17T01:33:36.123Z,23.09
2022-08-17T01:36:04.090Z,23.08
2022-08-17T01:38:31.783Z,22.96
2022-08-17T01:41:03.092Z,22.89
2022-08-17T01:43:35.027Z,22.79
2022-08-17T01:46:04.114Z,22.82
2022-08-17T01:48:33.665Z,22.70
2022-08-17T01:51:01.175Z,22.75
2022-08-17T01:53:34.208Z,22.83
2022-08-17T01:56:13.283Z,22.89
2022-08-17T01:58:42.215Z,22.95
2022-08-17T02:01:10.586Z,22.97
2022-08-17T02:03:38.268Z,23.04
2022-08-17T02:06:06.293Z,22.86
2022-08-17T02:09:01.482Z,22.63
2022-08-17T02:11:32.280Z,22.60
2022-08-17T02:14:02.437Z,22.56
2022-08-17T02:16:36.617Z,22.53
2022-08-17T02:19:11.100Z,22.32
2022-08-17T02:21:39.175Z,22.35
2022-08-17T02:24:10.848Z,22.35
2022-08-17T02:26:37.750Z,22.50
2022-08-17T02:29:04.578Z,22.23
2022-08-17T02:31:31.306Z,21.97
2022-08-17T02:34:03.892Z,21.88
2022-08-17T02:36:34.089Z,22.05
2022-08-17T02:39:11.947Z,22.26
2022-08-17T02:41:40.840Z,22.06
2022-08-17T02:44:08.116Z,22.18
2022-08-17T02:46:34.934Z,22.30
2022-08-17T02:49:01.740Z,22.41
2022-08-17T02:51:28.502Z,22.45
2022-08-17T02:54:40.152Z,22.48
2022-08-17T02:56:42.836Z,22.54
2022-08-17T02:59:09.468Z,22.45
2022-08-17T03:01:36.262Z,22.43
2022-08-17T03:04:03.086Z,22.48
2022-08-17T03:06:31.683Z,22.46
2022-08-17T03:08:58.417Z,22.21
2022-08-17T03:11:25.042Z,22.42
2022-08-17T03:13:51.681Z,22.35
2022-08-17T03:16:18.368Z,22.32
2022-08-17T03:18:45.007Z,21.91
2022-08-17T03:21:11.943Z,22.14
2022-08-17T03:23:42.149Z,22.08
2022-08-17T03:26:12.277Z,22.13
2022-08-17T03:28:42.353Z,22.29
2022-08-17T03:31:08.954Z,22.35
2022-08-17T03:33:35.640Z,22.26
2022-08-17T03:36:02.213Z,22.29
2022-08-17T03:38:28.934Z,22.24
2022-08-17T03:41:06.458Z,21.99
2022-08-17T03:43:34.462Z,21.88
2022-08-17T03:46:28.810Z,21.89
2022-08-17T03:49:23.926Z,21.70
2022-08-17T03:52:09.777Z,21.56
2022-08-17T03:54:55.692Z,21.51
2022-08-17T03:57:23.112Z,21.69
2022-08-17T03:59:50.341Z,21.78
2022-08-17T04:02:24.030Z,21.71
2022-08-17T04:04:51.323Z,21.61
2022-08-17T04:07:21.071Z,21.57
2022-08-17T04:09:48.101Z,21.48
2022-08-17T04:12:17.771Z,21.48
2022-08-17T04:14:53.401Z,21.57
2022-08-17T04:17:27.658Z,21.51
2022-08-17T04:19:54.930Z,21.59
2022-08-17T04:22:30.558Z,21.53
2022-08-17T04:25:14.244Z,21.72
2022-08-17T04:27:41.227Z,21.71
2022-08-17T04:30:08.648Z,21.43
2022-08-17T04:33:08.762Z,21.63
2022-08-17T04:35:45.537Z,21.56
2022-08-17T04:38:17.906Z,21.36
2022-08-17T04:41:03.628Z,21.31
2022-08-17T04:43:31.204Z,21.44
2022-08-17T04:46:00.877Z,21.38
2022-08-17T04:48:36.946Z,21.11
2022-08-17T04:51:07.098Z,21.04
2022-08-17T04:53:34.205Z,21.14
2022-08-17T04:56:00.862Z,21.14
2022-08-17T04:58:27.951Z,21.21
2022-08-17T05:00:54.592Z,21.04
2022-08-17T05:03:21.301Z,20.78
2022-08-17T05:05:50.000Z,20.98
2022-08-17T05:08:19.230Z,21.19
2022-08-17T05:10:47.146Z,21.30
2022-08-17T05:13:17.401Z,21.29
2022-08-17T05:15:47.901Z,21.29
2022-08-17T05:18:15.718Z,21.26
2022-08-17T05:20:42.856Z,21.06
2022-08-17T05:23:13.812Z,21.14
2022-08-17T05:25:47.343Z,21.25
2022-08-17T05:28:16.798Z,21.22
2022-08-17T05:30:46.313Z,21.16
2022-08-17T05:33:22.439Z,20.99
2022-08-17T05:35:51.798Z,21.17
2022-08-17T05:38:21.543Z,21.22
2022-08-17T05:40:48.533Z,21.18
2022-08-17T05:43:21.757Z,20.99
2022-08-17T05:46:02.843Z,21.13
2022-08-17T05:48:40.091Z,21.54
2022-08-17T05:51:27.960Z,21.28
2022-08-17T05:54:15.603Z,21.12
2022-08-17T05:56:42.364Z,21.39
2022-08-17T05:59:33.619Z,21.52
2022-08-17T06:02:00.230Z,21.53
2022-08-17T06:04:33.965Z,21.81
2022-08-17T06:07:06.630Z,22.13
2022-08-17T06:09:45.970Z,22.51
2022-08-17T06:12:23.555Z,22.64
2022-08-17T06:15:10.695Z,22.78
2022-08-17T06:17:37.921Z,22.99
2022-08-17T06:20:14.238Z,23.14
2022-08-17T06:22:47.700Z,23.29
2022-08-17T06:25:17.893Z,23.37
2022-08-17T06:27:53.577Z,23.50
2022-08-17T06:30:25.674Z,23.59
2022-08-17T06:32:55.516Z,23.69
2022-08-17T06:35:34.044Z,23.82
2022-08-17T06:38:04.586Z,23.89
2022-08-17T06:40:59.022Z,24.02
2022-08-17T06:43:43.986Z,24.09
2022-08-17T06:46:21.513Z,24.17
2022-08-17T06:49:07.837Z,24.23
2022-08-17T06:51:39.454Z,24.28
2022-08-17T06:54:10.267Z,24.34
2022-08-17T06:56:53.233Z,24.26
2022-08-17T06:59:36.252Z,24.31
2022-08-17T07:02:50.927Z,24.23
2022-08-17T07:05:24.225Z,24.26
2022-08-17T07:08:03.606Z,24.30
2022-08-17T07:10:46.063Z,24.35
2022-08-17T07:14:03.425Z,24.40
2022-08-17T07:16:42.274Z,24.36
2022-08-17T07:19:10.940Z,24.37
2022-08-17T07:21:50.269Z,24.31
2022-08-17T07:24:47.302Z,24.36
2022-08-17T07:27:31.109Z,24.47
2022-08-17T07:30:08.067Z,24.44
2022-08-17T07:32:58.391Z,24.34
2022-08-17T07:35:41.312Z,23.94
2022-08-17T07:38:29.653Z,23.97
2022-08-17T07:41:02.766Z,24.05
2022-08-17T07:43:35.228Z,24.09
2022-08-17T07:46:29.952Z,24.04
2022-08-17T07:49:18.434Z,24.09
2022-08-17T07:51:45.654Z,24.00
2022-08-17T07:54:15.441Z,24.07
2022-08-17T07:56:49.822Z,24.19
2022-08-17T07:59:23.396Z,24.16
2022-08-17T08:01:56.397Z,24.18
2022-08-17T08:04:58.840Z,24.11
2022-08-17T08:07:30.303Z,23.96
2022-08-17T08:10:02.882Z,24.01
2022-08-17T08:12:40.152Z,23.90
2022-08-17T08:15:35.356Z,23.88
2022-08-17T08:18:05.097Z,24.02
2022-08-17T08:20:53.100Z,24.10
2022-08-17T08:23:42.843Z,24.20
2022-08-17T08:26:27.562Z,24.29
2022-08-17T08:28:54.751Z,24.24
2022-08-17T08:31:42.322Z,24.48
2022-08-17T08:34:45.441Z,24.58
2022-08-17T08:37:36.686Z,24.61
2022-08-17T08:40:15.402Z,24.84
2022-08-17T08:42:52.761Z,25.02
2022-08-17T08:45:35.061Z,25.11
2022-08-17T08:48:23.161Z,25.06
2022-08-17T08:51:32.854Z,25.03
2022-08-17T08:54:26.597Z,24.98
2022-08-17T09:00:15.506Z,24.81
2022-08-17T09:03:10.057Z,24.91
2022-08-17T09:05:45.574Z,24.93
2022-08-17T09:08:18.089Z,24.94
2022-08-17T09:10:44.614Z,24.91
2022-08-17T09:13:45.508Z,24.83
2022-08-17T09:16:33.174Z,24.83
2022-08-17T09:19:10.753Z,24.97
2022-08-17T09:21:48.609Z,25.01
2022-08-17T09:24:35.591Z,24.99
2022-08-17T09:27:13.834Z,24.98
2022-08-17T09:29:49.069Z,25.01
2022-08-17T09:32:38.223Z,25.13
2022-08-17T09:35:25.044Z,25.02
2022-08-17T09:38:13.617Z,25.11
2022-08-17T09:40:40.160Z,25.12
2022-08-17T09:43:41.104Z,25.09
2022-08-17T09:46:21.961Z,25.15
2022-08-17T09:49:03.246Z,25.25
2022-08-17T09:51:39.988Z,25.23
2022-08-17T09:54:38.029Z,25.19
2022-08-17T09:57:34.972Z,25.23
2022-08-17T10:00:09.974Z,25.21
2022-08-17T10:03:24.096Z,25.01
2022-08-17T10:06:07.721Z,24.98
2022-08-17T10:08:52.422Z,25.06
2022-08-17T10:12:11.954Z,25.13
2022-08-17T10:15:07.986Z,25.04
2022-08-17T10:18:08.502Z,25.02
2022-08-17T10:21:33.319Z,25.10
2022-08-17T10:24:28.174Z,25.04
2022-08-17T10:26:59.027Z,24.98
2022-08-17T10:29:46.223Z,24.96
2022-08-17T10:32:33.628Z,24.99
2022-08-17T10:35:00.233Z,24.89
2022-08-17T10:38:04.119Z,24.99
2022-08-17T10:40:43.749Z,25.09
2022-08-17T10:43:38.452Z,25.07
2022-08-17T10:46:42.500Z,25.21
2022-08-17T10:49:18.185Z,25.20
2022-08-17T10:51:48.005Z,25.27
2022-08-17T10:54:48.806Z,25.28
2022-08-17T10:57:33.745Z,25.21
2022-08-17T11:00:02.356Z,25.14
2022-08-17T11:02:51.796Z,25.13
2022-08-17T11:05:59.860Z,25.00
2022-08-17T11:08:56.877Z,24.87
2022-08-17T11:11:50.827Z,24.77
2022-08-17T11:14:39.876Z,24.77
2022-08-17T11:17:14.490Z,24.74
2022-08-17T11:19:56.500Z,24.76
2022-08-17T11:22:31.313Z,24.67
2022-08-17T11:25:31.404Z,24.67
2022-08-17T11:28:09.251Z,24.71
2022-08-17T11:30:49.690Z,24.64
2022-08-17T11:33:36.895Z,24.52
2022-08-17T11:36:31.475Z,24.41
2022-08-17T11:39:22.458Z,24.48
2022-08-17T11:42:18.171Z,24.42
2022-08-17T11:45:31.922Z,24.58
2022-08-17T11:48:30.693Z,24.60
2022-08-17T11:51:18.507Z,24.51
2022-08-17T11:53:45.722Z,24.36
2022-08-17T11:56:38.212Z,24.42
2022-08-17T11:59:33.785Z,24.49
2022-08-17T12:02:02.943Z,24.53
2022-08-17T12:04:34.885Z,24.28
2022-08-17T12:07:18.081Z,24.35
2022-08-17T12:09:50.236Z,24.58
2022-08-17T12:12:22.749Z,24.36
2022-08-17T12:15:11.417Z,24.40
2022-08-17T12:17:40.658Z,24.48
2022-08-17T12:20:23.027Z,24.59
2022-08-17T12:23:05.393Z,24.55
2022-08-17T12:25:46.265Z,24.47
2022-08-17T12:28:25.333Z,24.34
2022-08-17T12:30:52.933Z,24.35
2022-08-17T12:33:25.483Z,24.35
2022-08-17T12:36:00.064Z,24.40
2022-08-17T12:38:33.011Z,24.45
2022-08-17T12:41:21.077Z,24.48
2022-08-17T12:43:58.564Z,24.39
2022-08-17T12:46:25.705Z,24.41
2022-08-17T12:48:58.772Z,24.47
2022-08-17T12:51:26.252Z,24.54
2022-08-17T12:53:54.957Z,24.75
2022-08-17T12:56:21.818Z,24.85
2022-08-17T12:58:53.964Z,24.87
2022-08-17T13:01:23.259Z,24.76
2022-08-17T13:03:53.557Z,24.71
2022-08-17T13:06:48.431Z,24.73
2022-08-17T13:09:35.971Z,24.70
2022-08-17T13:12:08.415Z,24.71
2022-08-17T13:14:35.246Z,24.84
2022-08-17T13:17:07.368Z,24.92
2022-08-17T13:19:48.284Z,25.05
2022-08-17T13:22:15.020Z,25.00
2022-08-17T13:24:56.970Z,25.09
2022-08-17T13:27:27.514Z,25.12
2022-08-17T13:30:01.377Z,25.24
2022-08-17T13:32:31.056Z,25.10
2022-08-17T13:35:14.198Z,25.08
2022-08-17T13:37:58.721Z,25.22
2022-08-17T13:40:29.672Z,25.19
2022-08-17T13:42:57.906Z,25.04
2022-08-17T13:45:34.930Z,25.15
2022-08-17T13:48:10.855Z,25.26
2022-08-17T13:50:43.585Z,25.40
2022-08-17T13:53:15.872Z,25.17
2022-08-17T13:55:53.457Z,24.99
2022-08-17T13:58:27.120Z,25.09
2022-08-17T14:00:53.882Z,25.18
2022-08-17T14:03:20.751Z,25.17
2022-08-17T14:05:50.036Z,25.17
2022-08-17T14:08:19.745Z,25.13
2022-08-17T14:10:57.697Z,25.25
2022-08-17T14:13:24.533Z,25.32
2022-08-17T14:15:56.153Z,25.36
2022-08-17T14:18:55.307Z,25.19
2022-08-17T14:21:11.045Z,25.36
2022-08-17T14:23:37.751Z,25.36
2022-08-17T14:26:05.186Z,25.26
2022-08-17T14:28:32.214Z,25.28
2022-08-17T14:31:00.748Z,25.38
2022-08-17T14:33:28.392Z,25.40
2022-08-17T14:35:55.814Z,25.54
2022-08-17T14:38:22.676Z,25.75
2022-08-17T14:40:49.634Z,25.84
2022-08-17T14:43:17.760Z,25.76
2022-08-17T14:45:44.531Z,25.70
2022-08-17T14:48:11.248Z,25.66
2022-08-17T14:50:42.647Z,25.63
2022-08-17T14:53:12.041Z,25.47
2022-08-17T14:55:42.102Z,25.48
2022-08-17T14:58:09.249Z,25.48
2022-08-17T15:00:36.776Z,25.43
2022-08-17T15:03:04.023Z,25.43
2022-08-17T15:05:34.020Z,25.54
2022-08-17T15:08:02.616Z,25.45
2022-08-17T15:10:30.698Z,25.37
2022-08-17T15:12:57.782Z,25.44
2022-08-17T15:15:24.400Z,25.40
2022-08-17T15:17:51.516Z,25.42
2022-08-17T15:20:24.851Z,25.44
2022-08-17T15:22:55.540Z,25.32
2022-08-17T15:25:23.987Z,25.34
2022-08-17T15:27:50.784Z,25.17
2022-08-17T15:30:17.690Z,25.15
2022-08-17T15:32:50.676Z,25.21
2022-08-17T15:35:27.995Z,25.24
2022-08-17T15:38:11.074Z,25.32
2022-08-17T15:40:48.296Z,25.39
2022-08-17T15:43:24.827Z,25.30
2022-08-17T15:46:12.449Z,25.25
2022-08-17T15:48:42.039Z,25.35
2022-08-17T15:51:21.130Z,25.38
2022-08-17T15:53:54.251Z,25.26
2022-08-17T15:56:21.278Z,25.22
2022-08-17T15:58:48.547Z,25.25
2022-08-17T16:01:51.806Z,25.43
2022-08-17T16:04:26.704Z,25.57
2022-08-17T16:06:52.632Z,25.62
2022-08-17T16:09:19.248Z,25.55
2022-08-17T16:11:45.974Z,25.51
2022-08-17T16:14:20.273Z,25.52
2022-08-17T16:16:47.472Z,25.60
2022-08-17T16:19:14.277Z,25.55
2022-08-17T16:21:42.780Z,25.68
2022-08-17T16:24:13.388Z,25.62
2022-08-17T16:26:40.542Z,25.53
2022-08-17T16:29:07.740Z,25.65
2022-08-17T16:31:36.013Z,25.73
2022-08-17T16:34:16.699Z,25.78
2022-08-17T16:36:55.266Z,25.77
2022-08-17T16:39:29.608Z,25.63
2022-08-17T16:41:57.385Z,25.56
2022-08-17T16:44:27.372Z,25.62
2022-08-17T16:46:54.312Z,25.72
2022-08-17T16:49:35.195Z,25.59
2022-08-17T16:52:04.216Z,25.65
2022-08-17T16:54:31.016Z,25.61
2022-08-17T16:56:57.690Z,25.51
2022-08-17T16:59:31.029Z,25.44
2022-08-17T17:02:04.716Z,25.30
2022-08-17T17:04:35.046Z,25.13
2022-08-17T17:07:33.605Z,25.02
2022-08-17T17:10:16.919Z,25.16
2022-08-17T17:13:01.547Z,24.97
2022-08-17T17:15:44.761Z,24.91
2022-08-17T17:18:14.736Z,24.70
2022-08-17T17:20:52.824Z,24.69
2022-08-17T17:23:47.771Z,24.43
2022-08-17T17:26:38.411Z,24.39
2022-08-17T17:29:24.299Z,24.27
2022-08-17T17:32:13.568Z,24.50
2022-08-17T17:34:50.878Z,24.58
2022-08-17T17:37:27.188Z,24.59
2022-08-17T17:39:59.904Z,24.62
2022-08-17T17:42:31.401Z,24.50
2022-08-17T17:45:16.778Z,24.42
2022-08-17T17:47:44.496Z,24.48
2022-08-17T17:50:11.387Z,24.51
2022-08-17T17:52:47.487Z,24.57
2022-08-17T17:55:22.993Z,24.50
2022-08-17T17:58:04.773Z,24.34
2022-08-17T18:00:46.395Z,24.44
2022-08-17T18:03:22.290Z,24.45
2022-08-17T18:06:13.471Z,24.43
2022-08-17T18:09:19.707Z,24.47
2022-08-17T18:12:09.123Z,24.22
2022-08-17T18:14:58.284Z,24.26
2022-08-17T18:17:24.970Z,24.23
2022-08-17T18:19:55.255Z,24.24
2022-08-17T18:22:23.953Z,24.34
2022-08-17T18:24:55.826Z,24.51
2022-08-17T18:27:38.220Z,24.45
2022-08-17T18:30:14.323Z,24.29
2022-08-17T18:32:43.611Z,24.20
2022-08-17T18:35:16.055Z,24.07
2022-08-17T18:37:48.908Z,24.09
2022-08-17T18:40:23.312Z,24.15
2022-08-17T18:43:27.790Z,24.28
2022-08-17T18:46:39.016Z,24.31
2022-08-17T18:49:25.302Z,24.29
2022-08-17T18:52:21.551Z,24.24
2022-08-17T18:55:04.074Z,24.26
2022-08-17T18:57:59.608Z,24.18
2022-08-17T19:00:26.435Z,24.09
2022-08-17T19:02:56.861Z,24.10
2022-08-17T19:05:36.494Z,24.14
2022-08-17T19:08:33.197Z,24.09
2022-08-17T19:11:19.150Z,23.95
2022-08-17T19:13:52.878Z,23.89
2022-08-17T19:16:30.462Z,23.77
2022-08-17T19:19:26.469Z,23.51
2022-08-17T19:22:02.790Z,23.53
2022-08-17T19:24:33.553Z,23.64
2022-08-17T19:27:19.627Z,23.69
2022-08-17T19:29:57.509Z,23.78
2022-08-17T19:32:31.566Z,23.87
2022-08-17T19:34:58.257Z,23.80
2022-08-17T19:37:52.707Z,23.72
2022-08-17T19:40:52.670Z,23.61
2022-08-17T19:43:25.253Z,23.62
2022-08-17T19:46:19.044Z,23.53
2022-08-17T19:48:56.341Z,23.49
2022-08-17T19:51:53.886Z,23.27
2022-08-17T19:54:30.967Z,23.22
2022-08-17T19:57:12.181Z,23.31
2022-08-17T19:59:56.799Z,23.30
2022-08-17T20:02:47.623Z,23.25
2022-08-17T20:05:30.761Z,23.15
2022-08-17T20:08:07.369Z,23.04
2022-08-17T20:10:47.366Z,22.96
2022-08-17T20:13:49.609Z,22.92
2022-08-17T20:16:18.115Z,22.95
2022-08-17T20:19:00.824Z,22.86
2022-08-17T20:21:41.252Z,22.69
2022-08-17T20:24:23.661Z,22.78
2022-08-17T20:26:59.920Z,22.93
2022-08-17T20:29:53.862Z,22.85
2022-08-17T20:32:48.648Z,22.99
2022-08-17T20:35:16.727Z,22.73
2022-08-17T20:37:53.618Z,22.40
2022-08-17T20:40:25.841Z,22.16
2022-08-17T20:42:52.824Z,21.90
2022-08-17T20:45:23.306Z,21.83
2022-08-17T20:48:33.285Z,21.87
2022-08-17T20:50:56.212Z,21.94
2022-08-17T20:53:47.967Z,22.11
2022-08-17T20:56:43.647Z,22.34
2022-08-17T20:59:25.669Z,22.55
2022-08-17T21:02:19.328Z,22.61
2022-08-17T21:04:56.275Z,22.73
2022-08-17T21:07:33.129Z,22.82
2022-08-17T21:10:25.502Z,22.77
2022-08-17T21:13:13.246Z,22.65
2022-08-17T21:15:51.708Z,22.66
2022-08-17T21:18:43.852Z,22.66
2022-08-17T21:21:48.397Z,22.60
2022-08-17T21:24:42.397Z,22.57
2022-08-17T21:27:18.303Z,22.35
2022-08-17T21:30:01.672Z,22.31
2022-08-17T21:32:35.435Z,22.38
2022-08-17T21:35:11.284Z,22.28
2022-08-17T21:37:40.727Z,22.16
2022-08-17T21:40:10.256Z,22.00
2022-08-17T21:42:47.319Z,21.99
2022-08-17T21:45:30.851Z,22.30
2022-08-17T21:48:19.567Z,22.42
2022-08-17T21:50:59.005Z,22.43
2022-08-17T21:53:33.500Z,22.38
2022-08-17T21:56:00.679Z,22.33
2022-08-17T21:58:34.207Z,21.95
2022-08-17T22:01:24.714Z,21.89
2022-08-17T22:04:14.885Z,21.84
2022-08-17T22:06:57.386Z,22.00
2022-08-17T22:09:31.576Z,22.06
2022-08-17T22:12:01.689Z,22.07
2022-08-17T22:14:53.395Z,22.07
2022-08-17T22:17:23.054Z,22.13
2022-08-17T22:19:59.537Z,22.20
2022-08-17T22:22:32.443Z,22.23
2022-08-17T22:25:08.458Z,22.15
2022-08-17T22:28:05.951Z,21.84
2022-08-17T22:30:42.467Z,21.85
2022-08-17T22:33:36.453Z,21.83
2022-08-17T22:36:12.478Z,21.83
2022-08-17T22:38:42.002Z,21.90
2022-08-17T22:41:13.736Z,21.66
2022-08-17T22:43:43.143Z,21.56
2022-08-17T22:46:12.386Z,21.53
2022-08-17T22:48:48.488Z,21.71
2022-08-17T22:51:20.670Z,21.71
2022-08-17T22:54:09.629Z,21.49
2022-08-17T22:56:55.477Z,21.58
2022-08-17T22:59:41.758Z,21.51
2022-08-17T23:02:17.297Z,21.43
2022-08-17T23:04:45.638Z,21.35
2022-08-17T23:07:12.316Z,21.13
2022-08-17T23:09:39.313Z,20.90
2022-08-17T23:12:11.595Z,20.99
2022-08-17T23:14:45.286Z,21.06
2022-08-17T23:17:12.466Z,21.19
2022-08-17T23:19:39.209Z,21.28
2022-08-17T23:22:08.820Z,21.29
2022-08-17T23:24:43.821Z,21.22
2022-08-17T23:27:11.155Z,21.20
2022-08-17T23:29:41.905Z,21.35
2022-08-17T23:32:11.636Z,21.41
2022-08-17T23:34:40.087Z,21.46
2022-08-17T23:37:07.975Z,21.36
2022-08-17T23:39:35.554Z,21.40
2022-08-17T23:42:07.924Z,21.33
2022-08-17T23:44:39.392Z,20.73
2022-08-17T23:47:07.993Z,20.55
2022-08-17T23:49:36.125Z,20.78
2022-08-17T23:52:06.987Z,20.98
2022-08-17T23:54:46.512Z,21.10
2022-08-17T23:57:19.075Z,20.98
2022-08-17T23:59:46.240Z,20.93
